Dobrodošli na spletni strani vremenske postaje Senovo. Vse informacije so informativnega značaja, saj vremenska postaja ni del državne mreže meteoroloških postaj. AKTUALNIH OBVESTIL NI.


Sneg/Led Od: 23-02-2018 00:00 Do: 23:59 Opozorilo za: Sneg/Led Stopnja: Rumena info button

Pogled proti Armezu več informacij Pogled proti Armezu


Lisca več informacij Lisca


Radar strel več informacij blitzortung!


opozorilo za sneg/led več informacij rain snow radar


Obiščite še:

Template documentation
and downloads

And another site



Weather Underground, zgodovina - Tekstovno

Dnevni povzetek za Januar 17, 2018 Enote:  Angleško    Metrično   Obe
« Predhodni Dan
Naslednji Dan »
Dnevni Tedenski Mesečni Letni Po meri
  Višja: Nižja: Povprečje:
Temperatura: TemperatureC °F -2.3 °F 3.3 °F
Točka rosišča: DewpointC °F -10.1 °F -2.2 °F
Vlažnost: Humidity % 39 % 69 %
Hitrost vetra: WindSpeedKMH mph 0.0 mph 1.9 mph
Sunki vetra: WindSpeedGustKMH mph - -
Veter:- - WSW
Zračni tlak: PressurehPa in 994.1 in -
Padavine: 2.5 in    
Historical Graphs
 
 
Tabelarni podarki za Januar 17, 2018
Čas Temperatura Točka rosišča Zračni tlak Veter Hitrost vetra Sunki vetra Vlažnost Intenziteta padavin (urna)
TemperatureC °F DewpointC °F PressurehPa in Calm     Humidity % HourlyPrecipMM in
00:03 8.1 °F 2.3 °F 998.9 in SW 5.5 mph 14.0 mph 67 % 0.0 in
00:14 7.9 °F 2.3 °F 998.9 in South 5.3 mph 9.0 mph 68 % 0.0 in
00:24 7.5 °F 1.9 °F 998.9 in SSE 5.0 mph 10.5 mph 68 % 0.0 in
00:37 7.3 °F 1.8 °F 998.9 in SSW 4.8 mph 10.1 mph 68 % 0.0 in
00:47 7.1 °F 1.6 °F 998.9 in SSW 4.3 mph 9.3 mph 68 % 0.0 in
01:00 6.8 °F 1.5 °F 998.9 in SW 1.4 mph 4.7 mph 69 % 0.0 in
01:36 6.2 °F 1.3 °F 996.8 in SW 1.4 mph 4.3 mph 71 % 0.0 in
01:52 5.8 °F 1.1 °F 996.8 in Calm     72 % 0.0 in
01:59 5.8 °F 1.3 °F 996.2 in Calm     73 % 0.0 in
02:05 5.7 °F 1.2 °F 996.2 in Calm     73 % 0.0 in
02:24 5.5 °F 1.2 °F 996.8 in Calm     74 % 0.0 in
02:32 5.5 °F 1.4 °F 996.8 in Calm     75 % 0.0 in
02:39 5.4 °F 1.3 °F 996.8 in Calm     75 % 0.0 in
02:49 5.4 °F 1.5 °F 996.2 in Calm     76 % 0.0 in
02:55 5.4 °F 1.5 °F 996.2 in SW 0.2 mph 2.6 mph 76 % 0.0 in
03:07 5.4 °F 1.7 °F 996.2 in Calm     77 % 0.0 in
03:17 5.4 °F 1.7 °F 996.2 in West 0.2 mph 3.2 mph 77 % 0.0 in
03:24 5.4 °F 1.9 °F 996.2 in Calm     78 % 0.0 in
03:30 5.4 °F 1.9 °F 996.2 in SW 0.5 mph 4.0 mph 78 % 0.0 in
03:37 5.5 °F 2.2 °F 996.2 in SW 0.5 mph 4.0 mph 79 % 0.0 in
03:45 5.5 °F 2.3 °F 995.1 in NW 0.5 mph 4.0 mph 80 % 0.0 in
04:03 5.6 °F 2.6 °F 995.1 in SSW 0.3 mph 2.1 mph 81 % 0.0 in
04:10 5.5 °F 2.5 °F 995.1 in West 0.2 mph 2.6 mph 81 % 0.0 in
04:37 5.5 °F 2.7 °F 995.1 in Calm     82 % 0.0 in
04:43 5.5 °F 2.8 °F 995.1 in Calm     83 % 0.0 in
04:52 5.5 °F 2.8 °F 995.1 in NW 0.2 mph 2.6 mph 83 % 0.0 in
05:24 5.5 °F 3.0 °F 995.1 in SSW 0.3 mph 2.6 mph 84 % 0.0 in
06:11 5.4 °F 3.2 °F 995.1 in West 1.9 mph 4.3 mph 86 % 0.3 in
06:24 5.5 °F 3.3 °F 995.1 in SW 2.6 mph 5.0 mph 86 % 0.3 in
06:30 5.5 °F 3.3 °F 995.1 in SSE 0.5 mph 3.5 mph 86 % 0.3 in
06:39 5.4 °F 3.2 °F 995.1 in Calm     86 % 0.5 in
06:46 5.4 °F 3.4 °F 995.1 in WNW 0.5 mph 2.6 mph 87 % 0.5 in
07:03 5.3 °F 3.3 °F 995.1 in SSW 1.6 mph 5.0 mph 87 % 0.3 in
07:10 5.3 °F 3.3 °F 995.1 in WSW 1.0 mph 4.3 mph 87 % 0.3 in
07:28 5.3 °F 3.5 °F 995.1 in SW 2.9 mph 6.4 mph 88 % 0.5 in
07:39 5.3 °F 3.5 °F 995.1 in North 0.2 mph   88 % 0.5 in
07:46 5.3 °F 3.5 °F 994.1 in Calm     88 % 1.0 in
07:54 5.3 °F 3.6 °F 994.1 in WSW 1.3 mph 4.0 mph 89 % 1.0 in
08:37 5.3 °F 3.8 °F 996.2 in Calm     90 % 0.5 in
08:43 5.3 °F 3.9 °F 995.1 in SSE 0.5 mph 3.5 mph 91 % 0.3 in
08:50 5.3 °F 3.9 °F 995.1 in SSW 1.4 mph 4.7 mph 91 % 0.3 in
08:56 5.4 °F 4.1 °F 995.1 in SSW 1.1 mph 4.7 mph 91 % 0.0 in
09:09 5.4 °F 4.1 °F 995.1 in WNW 0.6 mph 4.0 mph 91 % 0.0 in
09:16 5.6 °F 4.4 °F 995.1 in Calm     92 % 0.0 in
09:22 5.7 °F 4.5 °F 995.1 in South 0.5 mph 3.5 mph 92 % 0.0 in
09:34 5.7 °F 4.5 °F 995.1 in Calm     92 % 0.0 in
09:56 5.8 °F 4.8 °F 995.1 in NNE 0.3 mph 6.1 mph 93 % 0.0 in
10:02 5.8 °F 4.8 °F 995.1 in NE 1.0 mph 6.1 mph 93 % 0.0 in
10:12 5.9 °F 4.8 °F 996.2 in East 1.8 mph 6.1 mph 93 % 0.0 in
10:21 5.8 °F 4.8 °F 996.2 in WSW 1.8 mph 4.7 mph 93 % 0.0 in
10:30 5.7 °F 4.7 °F 996.2 in North 0.2 mph   93 % 0.0 in
10:42 5.7 °F 4.7 °F 996.2 in SW 0.5 mph 4.0 mph 93 % 0.0 in
10:48 5.7 °F 4.7 °F 996.2 in SSW 0.3 mph 2.6 mph 93 % 0.0 in
11:06 5.7 °F 4.7 °F 996.2 in West 0.8 mph 4.7 mph 93 % 0.0 in
11:15 5.8 °F 4.8 °F 996.2 in Calm   3.5 mph 93 % 0.0 in
11:37 6.4 °F 5.3 °F 996.2 in SW 1.1 mph 4.0 mph 93 % 0.0 in
11:48 6.5 °F 5.4 °F 996.2 in SSW 1.0 mph 4.7 mph 93 % 0.0 in
12:29 6.6 °F 5.4 °F 996.2 in SSW 1.9 mph 5.5 mph 92 % 0.0 in
12:37 6.7 °F 5.5 °F 996.2 in South 1.4 mph 4.3 mph 92 % 0.0 in
12:54 6.6 °F 5.4 °F 996.2 in WSW 1.9 mph 4.3 mph 92 % 0.0 in
13:05 6.7 °F 5.3 °F 996.8 in WSW 0.2 mph 4.7 mph 91 % 0.0 in
13:12 6.7 °F 5.3 °F 996.8 in WSW 1.6 mph 6.4 mph 91 % 0.0 in
13:19 6.7 °F 5.3 °F 996.8 in WSW 3.7 mph 6.4 mph 91 % 0.0 in
13:30 6.9 °F 5.4 °F 997.9 in SW 3.5 mph 5.8 mph 90 % 0.0 in
13:50 7.0 °F 5.3 °F 997.9 in WSW 1.3 mph 5.5 mph 89 % 0.0 in
14:23 4.6 °F 2.3 °F 997.9 in NE 6.9 mph 13.0 mph 85 % 1.0 in
14:36 4.3 °F 1.8 °F 998.9 in NE 0.5 mph 6.4 mph 84 % 1.0 in
14:58 4.0 °F 1.6 °F 997.9 in NW 0.3 mph 4.0 mph 84 % 1.0 in
15:17 4.1 °F 1.6 °F 998.9 in NNW 3.9 mph 11.1 mph 84 % 0.0 in
15:38 4.6 °F 1.9 °F 999.9 in North 5.0 mph 12.6 mph 83 % 0.0 in
15:45 4.8 °F 2.0 °F 999.9 in NNW 4.7 mph 9.3 mph 82 % 0.0 in
16:07 4.9 °F 1.2 °F 999.9 in NW 4.2 mph 15.8 mph 77 % 0.0 in
16:16 5.1 °F 1.1 °F 999.9 in NNW 5.0 mph 9.0 mph 75 % 0.0 in
16:21 5.1 °F 0.8 °F 999.9 in NNW 4.3 mph 8.7 mph 74 % 0.0 in
16:27 5.0 °F 0.4 °F 999.9 in North 3.9 mph 9.7 mph 72 % 0.0 in
16:38 4.8 °F 0.0 °F 999.9 in North 2.6 mph 6.9 mph 71 % 0.0 in
16:56 5.2 °F -0.7 °F 1000.9 in NNE 5.6 mph 12.2 mph 66 % 0.0 in
17:19 5.0 °F -2.1 °F 1000.9 in NNW 4.5 mph 10.5 mph 60 % 0.0 in
17:24 5.0 °F -2.3 °F 1000.9 in NNE 3.7 mph 7.6 mph 59 % 0.0 in
17:33 5.2 °F -2.6 °F 1001.9 in NNW 6.4 mph 16.9 mph 57 % 0.0 in
17:41 5.3 °F -3.0 °F 1002.9 in NW 4.7 mph 11.9 mph 55 % 0.0 in
17:47 5.3 °F -3.3 °F 1002.9 in NW 4.2 mph 6.9 mph 54 % 0.0 in
17:57 5.2 °F -3.9 °F 1002.9 in NNW 5.0 mph 12.2 mph 52 % 0.0 in
18:03 4.9 °F -4.2 °F 1002.9 in WNW 5.8 mph 10.5 mph 52 % 0.0 in
18:14 4.7 °F -4.6 °F 1002.9 in West 3.1 mph 5.8 mph 51 % 0.0 in
18:24 4.8 °F -4.8 °F 1002.9 in NW 4.3 mph 7.9 mph 50 % 0.0 in
18:29 4.7 °F -5.1 °F 1002.9 in NW 5.1 mph 13.0 mph 49 % 0.0 in
18:47 5.1 °F -6.2 °F 1002.9 in WNW 7.2 mph 20.9 mph 44 % 0.0 in
19:04 5.2 °F -7.0 °F 1002.9 in NW 6.8 mph 16.6 mph 41 % 0.0 in
19:10 5.1 °F -7.4 °F 1002.9 in WNW 7.2 mph 17.2 mph 40 % 0.0 in
19:17 4.8 °F -7.7 °F 1003.9 in NNW 4.7 mph 11.9 mph 40 % 0.0 in
19:23 4.6 °F -8.2 °F 1003.9 in North 4.7 mph 10.5 mph 39 % 0.0 in
19:30 4.5 °F -8.3 °F 1003.9 in NNW 4.7 mph 13.7 mph 39 % 0.0 in
19:55 3.0 °F -9.3 °F 1005.0 in NW 3.2 mph 7.9 mph 40 % 0.0 in
20:14 1.9 °F -10.0 °F 1005.0 in NW 2.7 mph 5.8 mph 41 % 0.0 in
20:19 1.4 °F -10.1 °F 1005.0 in WNW 2.6 mph 4.0 mph 42 % 0.0 in
20:27 1.2 °F -10.0 °F 1006.0 in NW 3.1 mph 6.9 mph 43 % 0.0 in
20:39 0.9 °F -9.4 °F 1006.0 in NW 2.4 mph 6.1 mph 46 % 0.0 in
20:44 1.0 °F -9.3 °F 1006.0 in WNW 3.1 mph 13.7 mph 46 % 0.0 in
20:49 0.9 °F -9.2 °F 1006.0 in NW 3.5 mph 13.7 mph 47 % 0.0 in
20:54 0.8 °F -9.0 °F 1006.0 in NW 3.7 mph 9.0 mph 48 % 0.0 in
20:59 0.8 °F -8.7 °F 1007.0 in NW 3.4 mph 6.4 mph 49 % 0.0 in
21:04 0.7 °F -8.6 °F 1007.0 in NW 2.9 mph 5.8 mph 50 % 0.0 in
21:09 0.6 °F -8.7 °F 1007.0 in NW 2.4 mph 5.8 mph 50 % 0.0 in
21:14 0.6 °F -8.7 °F 1007.0 in North 2.7 mph 6.9 mph 50 % 0.0 in
21:19 0.4 °F -8.6 °F 1007.0 in NNE 2.6 mph 6.9 mph 51 % 0.0 in
21:25 0.3 °F -8.7 °F 1007.0 in WNW 1.6 mph 4.0 mph 51 % 0.0 in
21:30 0.3 °F -8.4 °F 1008.0 in WNW 0.6 mph 4.0 mph 52 % 0.0 in
21:35 0.1 °F -8.6 °F 1008.0 in NNW 1.4 mph 4.7 mph 52 % 0.0 in
21:36 0.0 °F -8.7 °F 1008.0 in NNW 1.4 mph 4.7 mph 52 % 0.0 in
21:39 -0.1 °F -8.8 °F 1008.0 in NNW 1.6 mph 4.7 mph 52 % 0.0 in
21:41 -0.1 °F -8.8 °F 1008.0 in NW 1.6 mph 4.7 mph 52 % 0.0 in
21:43 -0.2 °F -8.7 °F 1006.0 in NW 1.1 mph 4.7 mph 53 % 0.0 in
21:46 -0.3 °F -8.7 °F 1006.0 in NW 0.5 mph 4.7 mph 53 % 0.0 in
21:51 -0.4 °F -8.8 °F 1006.0 in NW 0.2 mph 2.6 mph 53 % 0.0 in
21:56 -0.5 °F -8.7 °F 1007.0 in North 0.5 mph 4.0 mph 54 % 0.0 in
22:01 -0.7 °F -8.9 °F 1007.0 in North 0.6 mph 4.0 mph 54 % 0.0 in
22:06 -0.7 °F -8.6 °F 1007.0 in NNW 1.0 mph 4.7 mph 55 % 0.0 in
22:11 -0.9 °F -8.8 °F 1007.0 in NW 1.1 mph 4.7 mph 55 % 0.0 in
22:13 -0.9 °F -8.8 °F 1007.0 in NW 0.5 mph 4.0 mph 55 % 0.0 in
22:17 -1.0 °F -8.7 °F 1007.0 in NW 0.3 mph 4.0 mph 56 % 0.0 in
22:20 -1.0 °F -8.7 °F 1007.0 in WSW 0.5 mph 4.3 mph 56 % 0.0 in
22:21 -1.0 °F -8.7 °F 1007.0 in WNW 0.6 mph 4.3 mph 56 % 0.0 in
22:22 -1.0 °F -8.7 °F 1007.0 in WNW 0.8 mph 4.3 mph 56 % 0.0 in
22:25 -1.1 °F -8.8 °F 1007.0 in WNW 0.8 mph 4.3 mph 56 % 0.0 in
22:26 -1.2 °F -8.9 °F 1008.0 in WNW 0.8 mph 4.3 mph 56 % 0.0 in
22:29 -1.2 °F -8.7 °F 1008.0 in North 0.6 mph 4.0 mph 57 % 0.0 in
22:30 -1.2 °F -8.7 °F 1008.0 in North 0.8 mph 4.0 mph 57 % 0.0 in
22:35 -1.4 °F -8.8 °F 1008.0 in NNW 1.6 mph 4.3 mph 57 % 0.0 in
22:36 -1.4 °F -8.8 °F 1008.0 in NNW 1.8 mph 4.3 mph 57 % 0.0 in
22:39 -1.4 °F -8.6 °F 1008.0 in NNW 1.9 mph 5.0 mph 58 % 0.0 in
22:44 -1.5 °F -8.7 °F 1008.0 in South 1.0 mph 5.0 mph 58 % 0.0 in
22:49 -1.5 °F -8.7 °F 1008.0 in SSE 0.2 mph 2.1 mph 58 % 0.0 in
22:51 -1.6 °F -8.6 °F 1008.0 in Calm     59 % 0.0 in
22:56 -1.7 °F -8.7 °F 1008.0 in South 0.2 mph 3.2 mph 59 % 0.0 in
23:01 -1.7 °F -8.7 °F 1008.0 in SSE 0.5 mph 3.2 mph 59 % 0.0 in
23:06 -1.8 °F -8.6 °F 1008.0 in NW 1.3 mph 3.5 mph 60 % 0.0 in
23:11 -1.9 °F -8.7 °F 1008.0 in WNW 2.6 mph 4.3 mph 60 % 0.0 in
23:16 -1.9 °F -8.7 °F 1008.0 in West 2.6 mph 5.5 mph 60 % 0.0 in
23:21 -2.0 °F -8.5 °F 1008.0 in WNW 1.9 mph 5.5 mph 61 % 0.0 in
23:26 -2.1 °F -8.6 °F 1009.0 in NNW 1.1 mph 4.0 mph 61 % 0.0 in
23:31 -2.1 °F -8.4 °F 1009.0 in NNW 0.5 mph 2.6 mph 62 % 0.0 in
23:36 -2.2 °F -8.5 °F 1009.0 in West 0.2 mph 3.2 mph 62 % 0.0 in
23:41 -2.2 °F -8.3 °F 1008.0 in South 1.6 mph 5.5 mph 63 % 0.0 in
23:46 -2.2 °F -8.3 °F 1008.0 in SW 2.7 mph 5.5 mph 63 % 0.0 in
23:51 -2.3 °F -8.4 °F 1008.0 in WSW 3.2 mph 5.5 mph 63 % 0.0 in
23:56 -2.3 °F -8.2 °F 1008.0 in SW 3.1 mph 5.5 mph 64 % 0.0 in
Vremenska postaja Senovo
Podatki zbrani iz Weather Underground - 2.25 mb

Script developed by  Jim McMurry - jmcmurry@mwt.net Adapted for the template by  Wim van der Kuil - Leuven-Template.eu

Vremenski podatki so objavljeni na:

European Weather Network

WeatherCloud

Weather Underground

AWEKAS

HAMweather, WeatherForYou, PWS Weather

MapView

Geostik

Slovenia weather network

Oprema, ki se uporablja:

Vremenski program
Cumulus

Vremenski server
Asus

Cumulus

Asus